createdAt,value
2018-09-11T00:00:09.093Z,20.00
2018-09-11T00:02:43.491Z,20.00
2018-09-11T00:05:17.922Z,20.00
2018-09-11T00:07:52.321Z,19.90
2018-09-11T00:10:26.761Z,19.80
2018-09-11T00:13:01.158Z,19.80
2018-09-11T00:15:35.534Z,19.70
2018-09-11T00:18:09.903Z,19.70
2018-09-11T00:20:44.342Z,19.70
2018-09-11T00:23:18.732Z,19.70
2018-09-11T00:25:53.107Z,19.70
2018-09-11T00:28:27.487Z,19.60
2018-09-11T00:31:01.960Z,19.60
2018-09-11T00:33:36.396Z,19.60
2018-09-11T00:36:10.768Z,19.60
2018-09-11T00:38:45.121Z,19.60
2018-09-11T00:41:19.492Z,19.60
2018-09-11T00:43:53.963Z,19.60
2018-09-11T00:46:28.344Z,19.60
2018-09-11T00:49:02.787Z,19.60
2018-09-11T00:51:37.162Z,19.60
2018-09-11T00:54:11.624Z,19.60
2018-09-11T00:56:45.964Z,19.60
2018-09-11T00:59:20.410Z,19.60
2018-09-11T01:01:54.953Z,19.60
2018-09-11T01:04:29.414Z,19.60
2018-09-11T01:07:03.918Z,19.60
2018-09-11T01:09:38.261Z,19.60
2018-09-11T01:12:12.697Z,19.60
2018-09-11T01:14:47.033Z,19.60
2018-09-11T01:17:21.398Z,19.60
2018-09-11T01:19:55.745Z,19.60
2018-09-11T01:22:30.143Z,19.60
2018-09-11T01:25:04.614Z,19.60
2018-09-11T01:27:39.044Z,19.60
2018-09-11T01:30:17.603Z,19.60
2018-09-11T01:32:52.674Z,19.60
2018-09-11T01:35:27.092Z,19.60
2018-09-11T01:38:01.542Z,19.60
2018-09-11T01:40:35.981Z,19.50
2018-09-11T01:43:10.426Z,19.50
2018-09-11T01:45:44.873Z,19.50
2018-09-11T01:48:19.249Z,19.50
2018-09-11T01:50:53.671Z,19.50
2018-09-11T01:53:28.095Z,19.50
2018-09-11T01:56:02.663Z,19.40
2018-09-11T01:58:37.070Z,19.40
2018-09-11T02:01:11.434Z,19.40
2018-09-11T02:03:45.982Z,19.40
2018-09-11T02:06:20.378Z,19.40
2018-09-11T02:08:54.806Z,19.30
2018-09-11T02:11:29.255Z,19.30
2018-09-11T02:14:03.959Z,19.30
2018-09-11T02:16:38.380Z,19.20
2018-09-11T02:19:12.778Z,19.20
2018-09-11T02:21:47.357Z,19.20
2018-09-11T02:24:21.912Z,19.10
2018-09-11T02:26:56.338Z,19.10
2018-09-11T02:29:30.773Z,19.10
2018-09-11T02:32:05.245Z,19.10
2018-09-11T02:34:39.681Z,19.00
2018-09-11T02:37:14.018Z,18.90
2018-09-11T02:39:48.412Z,18.90
2018-09-11T02:42:22.847Z,18.90
2018-09-11T02:44:57.225Z,18.80
2018-09-11T02:47:31.665Z,18.80
2018-09-11T02:50:06.697Z,18.70
2018-09-11T02:52:41.151Z,18.70
2018-09-11T02:55:15.587Z,18.60
2018-09-11T02:57:49.970Z,18.60
2018-09-11T03:00:24.397Z,18.60
2018-09-11T03:03:01.879Z,18.60
2018-09-11T03:05:36.973Z,18.60
2018-09-11T03:08:11.375Z,18.50
2018-09-11T03:10:46.851Z,18.50
2018-09-11T03:13:22.335Z,18.50
2018-09-11T03:15:56.794Z,18.50
2018-09-11T03:18:32.030Z,18.40
2018-09-11T03:21:07.399Z,18.40
2018-09-11T03:23:41.855Z,18.40
2018-09-11T03:26:16.789Z,18.40
2018-09-11T03:28:52.507Z,18.40
2018-09-11T03:31:27.441Z,18.40
2018-09-11T03:34:02.032Z,18.30
2018-09-11T03:36:38.117Z,18.30
2018-09-11T03:39:13.546Z,18.30
2018-09-11T03:41:47.930Z,18.30
2018-09-11T03:44:22.670Z,18.20
2018-09-11T03:46:57.859Z,18.20
2018-09-11T03:49:33.298Z,18.20
2018-09-11T03:52:09.703Z,18.10
2018-09-11T03:54:44.166Z,18.10
2018-09-11T03:57:18.735Z,18.10
2018-09-11T03:59:53.757Z,18.10
2018-09-11T04:02:28.214Z,18.00
2018-09-11T04:05:03.946Z,18.00
2018-09-11T04:07:38.446Z,18.00
2018-09-11T04:10:14.285Z,18.00
2018-09-11T04:12:49.629Z,17.90
2018-09-11T04:15:24.791Z,17.90
2018-09-11T04:18:01.025Z,17.90
2018-09-11T04:20:35.514Z,17.90
2018-09-11T04:23:11.528Z,17.80
2018-09-11T04:25:46.701Z,17.80
2018-09-11T04:28:21.590Z,17.80
2018-09-11T04:30:55.984Z,17.80
2018-09-11T04:33:31.312Z,17.80
2018-09-11T04:36:07.255Z,17.80
2018-09-11T04:38:42.392Z,17.80
2018-09-11T04:41:17.690Z,17.80
2018-09-11T04:43:55.070Z,17.80
2018-09-11T04:46:30.606Z,17.80
2018-09-11T04:49:05.028Z,17.70
2018-09-11T04:51:39.419Z,17.70
2018-09-11T04:54:13.898Z,17.70
2018-09-11T04:56:48.318Z,17.70
2018-09-11T04:59:22.873Z,17.70
2018-09-11T05:01:57.237Z,17.70
2018-09-11T05:04:31.600Z,17.70
2018-09-11T05:07:06.125Z,17.70
2018-09-11T05:09:40.593Z,17.70
2018-09-11T05:12:15.696Z,17.80
2018-09-11T05:14:50.159Z,17.80
2018-09-11T05:21:16.138Z,17.90
2018-09-11T05:23:50.548Z,17.90
2018-09-11T05:26:24.974Z,17.90
2018-09-11T05:28:59.342Z,17.90
2018-09-11T05:31:34.006Z,18.00
2018-09-11T05:34:08.405Z,18.00
2018-09-11T05:36:43.011Z,18.00
2018-09-11T05:39:17.871Z,18.10
2018-09-11T05:41:52.282Z,18.10
2018-09-11T05:44:26.702Z,18.20
2018-09-11T05:47:01.300Z,18.20
2018-09-11T05:49:35.751Z,18.20
2018-09-11T05:52:10.114Z,18.30
2018-09-11T05:54:44.627Z,18.30
2018-09-11T05:57:19.099Z,18.40
2018-09-11T05:59:53.477Z,18.40
2018-09-11T06:02:27.964Z,18.40
2018-09-11T06:05:02.370Z,18.50
2018-09-11T06:07:36.684Z,18.50
2018-09-11T06:10:11.059Z,18.50
2018-09-11T06:12:46.318Z,18.60
2018-09-11T06:15:20.846Z,18.60
2018-09-11T06:17:55.437Z,18.60
2018-09-11T06:20:29.769Z,18.70
2018-09-11T06:23:04.175Z,18.70
2018-09-11T06:25:38.592Z,18.80
2018-09-11T06:28:12.931Z,18.80
2018-09-11T06:30:47.274Z,18.90
2018-09-11T06:33:21.685Z,18.90
2018-09-11T06:35:56.065Z,19.00
2018-09-11T06:38:30.499Z,19.00
2018-09-11T06:41:04.913Z,19.10
2018-09-11T06:43:39.358Z,19.20
2018-09-11T06:46:13.749Z,19.30
2018-09-11T06:48:48.243Z,19.40
2018-09-11T06:51:22.678Z,19.50
2018-09-11T06:53:57.038Z,19.60
2018-09-11T06:56:31.387Z,19.70
2018-09-11T06:59:06.251Z,19.80
2018-09-11T07:01:40.535Z,19.90
2018-09-11T07:04:15.133Z,20.00
2018-09-11T07:06:49.506Z,20.10
2018-09-11T07:09:23.854Z,20.20
2018-09-11T07:11:58.388Z,20.20
2018-09-11T07:14:33.106Z,20.30
2018-09-11T07:17:07.500Z,20.30
2018-09-11T07:19:41.902Z,20.40
2018-09-11T07:22:16.505Z,20.50
2018-09-11T07:24:50.942Z,20.60
2018-09-11T07:27:25.290Z,20.70
2018-09-11T07:29:59.659Z,20.80
2018-09-11T07:32:34.094Z,20.90
2018-09-11T07:35:08.503Z,21.10
2018-09-11T07:37:42.890Z,21.20
2018-09-11T07:40:17.358Z,21.30
2018-09-11T07:42:51.742Z,21.40
2018-09-11T07:45:26.121Z,21.50
2018-09-11T07:48:00.631Z,21.60
2018-09-11T07:50:35.018Z,21.70
2018-09-11T07:53:09.526Z,21.80
2018-09-11T07:55:43.978Z,21.90
2018-09-11T07:58:18.398Z,22.00
2018-09-11T08:00:53.582Z,22.10
2018-09-11T08:03:28.045Z,22.20
2018-09-11T08:06:02.529Z,22.30
2018-09-11T08:08:36.903Z,22.40
2018-09-11T08:11:11.337Z,22.50
2018-09-11T08:13:45.644Z,22.60
2018-09-11T08:16:20.075Z,22.70
2018-09-11T08:18:54.453Z,22.80
2018-09-11T08:21:28.777Z,22.90
2018-09-11T08:24:03.241Z,23.00
2018-09-11T08:26:37.593Z,23.20
2018-09-11T08:29:12.005Z,23.30
2018-09-11T08:31:46.324Z,23.40
2018-09-11T08:34:20.678Z,23.60
2018-09-11T08:36:55.322Z,23.70
2018-09-11T08:39:29.679Z,23.90
2018-09-11T08:42:04.034Z,24.00
2018-09-11T08:44:38.494Z,24.20
2018-09-11T08:47:12.841Z,24.30
2018-09-11T08:49:47.264Z,24.50
2018-09-11T08:52:21.668Z,24.60
2018-09-11T08:54:56.050Z,24.80
2018-09-11T08:57:30.869Z,24.90
2018-09-11T09:00:05.638Z,25.00
2018-09-11T09:02:40.014Z,25.10
2018-09-11T09:05:14.458Z,25.20
2018-09-11T09:07:48.845Z,25.40
2018-09-11T09:10:33.474Z,25.50
2018-09-11T09:13:09.824Z,25.70
2018-09-11T09:15:44.251Z,25.90
2018-09-11T09:18:18.587Z,26.10
2018-09-11T09:20:53.007Z,26.30
2018-09-11T09:23:27.409Z,26.40
2018-09-11T09:26:01.759Z,26.60
2018-09-11T09:28:36.202Z,26.80
2018-09-11T09:31:10.618Z,27.00
2018-09-11T09:33:45.667Z,27.20
2018-09-11T09:36:20.131Z,27.30
2018-09-11T09:38:54.527Z,27.40
2018-09-11T09:41:51.295Z,27.40
2018-09-11T09:44:35.938Z,27.50
2018-09-11T09:47:11.098Z,27.50
2018-09-11T09:49:45.471Z,27.50
2018-09-11T09:52:19.844Z,27.60
2018-09-11T09:54:54.306Z,27.60
2018-09-11T09:57:28.691Z,27.70
2018-09-11T10:00:03.092Z,27.80
2018-09-11T10:02:37.472Z,27.80
2018-09-11T10:05:13.971Z,27.80
2018-09-11T10:07:48.352Z,27.80
2018-09-11T10:10:22.878Z,27.80
2018-09-11T10:12:57.772Z,27.90
2018-09-11T10:15:33.197Z,27.90
2018-09-11T10:18:09.281Z,28.00
2018-09-11T10:20:45.807Z,28.00
2018-09-11T10:23:21.030Z,28.10
2018-09-11T10:26:00.384Z,28.10
2018-09-11T10:28:43.278Z,28.00
2018-09-11T10:31:23.615Z,28.00
2018-09-11T10:34:15.941Z,28.10
2018-09-11T10:36:51.197Z,28.20
2018-09-11T10:39:31.732Z,28.20
2018-09-11T10:42:06.151Z,28.30
2018-09-11T10:44:40.531Z,28.40
2018-09-11T10:47:15.289Z,28.40
2018-09-11T10:49:49.719Z,28.50
2018-09-11T10:52:24.072Z,28.60
2018-09-11T10:54:58.455Z,28.70
2018-09-11T10:57:32.846Z,28.80
2018-09-11T11:00:07.362Z,29.00
2018-09-11T11:02:41.773Z,29.00
2018-09-11T11:05:16.231Z,29.00
2018-09-11T11:07:50.630Z,29.10
2018-09-11T11:10:25.102Z,29.10
2018-09-11T11:12:59.717Z,29.20
2018-09-11T11:15:34.772Z,29.20
2018-09-11T11:18:09.420Z,29.20
2018-09-11T11:20:43.799Z,29.20
2018-09-11T11:23:18.652Z,29.30
2018-09-11T11:25:53.138Z,29.30
2018-09-11T11:28:30.030Z,29.40
2018-09-11T11:31:06.799Z,29.50
2018-09-11T11:37:11.298Z,29.70
2018-09-11T11:39:50.355Z,29.80
2018-09-11T11:42:29.594Z,29.90
2018-09-11T11:45:13.019Z,30.00
2018-09-11T11:47:54.433Z,30.20
2018-09-11T11:50:48.424Z,30.30
2018-09-11T11:56:36.751Z,30.50
2018-09-11T11:59:54.072Z,30.50
2018-09-11T12:02:38.159Z,30.60
2018-09-11T12:05:31.147Z,30.70
2018-09-11T12:08:15.892Z,30.70
2018-09-11T12:11:03.820Z,30.80
2018-09-11T12:13:55.885Z,30.80
2018-09-11T12:16:49.025Z,30.90
2018-09-11T12:19:24.628Z,31.10
2018-09-11T12:21:59.597Z,31.20
2018-09-11T12:24:33.991Z,31.20
2018-09-11T12:27:08.550Z,31.30
2018-09-11T12:29:42.917Z,31.30
2018-09-11T12:32:17.395Z,31.40
2018-09-11T12:34:51.786Z,31.40
2018-09-11T12:37:27.299Z,31.40
2018-09-11T12:40:02.869Z,31.40
2018-09-11T12:42:37.209Z,31.40
2018-09-11T12:45:11.588Z,31.50
2018-09-11T12:47:46.636Z,31.60
2018-09-11T12:50:20.788Z,31.70
2018-09-11T12:52:55.331Z,31.80
2018-09-11T12:55:29.680Z,31.80
2018-09-11T12:58:04.066Z,31.90
2018-09-11T13:00:38.470Z,32.00
2018-09-11T13:03:12.944Z,32.00
2018-09-11T13:05:47.555Z,32.00
2018-09-11T13:08:22.006Z,31.90
2018-09-11T13:10:56.447Z,31.90
2018-09-11T13:13:31.030Z,31.90
2018-09-11T13:16:05.449Z,32.00
2018-09-11T13:18:39.806Z,32.00
2018-09-11T13:21:14.169Z,31.90
2018-09-11T13:23:48.483Z,31.90
2018-09-11T13:26:22.847Z,31.90
2018-09-11T13:28:57.262Z,31.90
2018-09-11T13:31:31.583Z,31.90
2018-09-11T13:34:06.302Z,31.90
2018-09-11T13:36:40.725Z,31.90
2018-09-11T13:39:15.134Z,31.90
2018-09-11T13:41:49.511Z,31.90
2018-09-11T13:44:23.927Z,31.90
2018-09-11T13:46:58.951Z,31.90
2018-09-11T13:49:33.913Z,31.90
2018-09-11T13:52:08.266Z,31.90
2018-09-11T13:54:43.242Z,31.90
2018-09-11T13:57:17.714Z,31.90
2018-09-11T13:59:53.306Z,31.90
2018-09-11T14:02:28.871Z,32.00
2018-09-11T14:05:03.417Z,32.00
2018-09-11T14:07:38.021Z,32.10
2018-09-11T14:10:12.414Z,32.20
2018-09-11T14:12:46.769Z,32.20
2018-09-11T14:15:21.115Z,32.30
2018-09-11T14:17:55.927Z,32.40
2018-09-11T14:20:30.285Z,32.50
2018-09-11T14:23:04.723Z,32.60
2018-09-11T14:25:39.115Z,32.60
2018-09-11T14:28:13.767Z,32.70
2018-09-11T14:30:48.156Z,32.70
2018-09-11T14:33:22.566Z,32.80
2018-09-11T14:35:56.995Z,32.80
2018-09-11T14:38:31.385Z,32.90
2018-09-11T14:41:05.794Z,32.90
2018-09-11T14:43:40.156Z,33.00
2018-09-11T14:46:14.577Z,33.00
2018-09-11T14:48:49.854Z,33.10
2018-09-11T14:51:24.222Z,33.10
2018-09-11T14:53:58.602Z,33.20
2018-09-11T14:56:33.608Z,33.20
2018-09-11T14:59:07.994Z,33.20
2018-09-11T15:01:42.352Z,33.30
2018-09-11T15:04:16.814Z,33.20
2018-09-11T15:06:51.178Z,33.20
2018-09-11T15:09:25.526Z,33.10
2018-09-11T15:12:04.945Z,33.00
2018-09-11T15:14:40.743Z,32.90
2018-09-11T15:17:15.846Z,32.80
2018-09-11T15:19:50.183Z,32.70
2018-09-11T15:22:24.776Z,32.70
2018-09-11T15:24:59.238Z,32.60
2018-09-11T15:27:33.571Z,32.60
2018-09-11T15:30:07.940Z,32.50
2018-09-11T15:32:43.002Z,32.50
2018-09-11T15:35:17.338Z,32.30
2018-09-11T15:37:51.701Z,32.20
2018-09-11T15:40:26.031Z,32.10
2018-09-11T15:43:00.377Z,31.90
2018-09-11T15:45:34.739Z,31.80
2018-09-11T15:48:09.140Z,31.70
2018-09-11T15:50:43.489Z,31.60
2018-09-11T15:53:17.807Z,31.60
2018-09-11T15:55:52.340Z,31.50
2018-09-11T15:58:26.625Z,31.40
2018-09-11T16:01:01.027Z,31.30
2018-09-11T16:03:35.351Z,31.30
2018-09-11T16:06:09.722Z,31.20
2018-09-11T16:08:44.098Z,31.10
2018-09-11T16:11:18.430Z,31.00
2018-09-11T16:13:52.755Z,30.90
2018-09-11T16:16:27.054Z,30.80
2018-09-11T16:19:01.415Z,30.70
2018-09-11T16:21:35.757Z,30.60
2018-09-11T16:24:10.074Z,30.50
2018-09-11T16:26:44.431Z,30.50
2018-09-11T16:29:18.717Z,30.40
2018-09-11T16:31:53.077Z,30.30
2018-09-11T16:34:27.425Z,30.30
2018-09-11T16:37:01.745Z,30.20
2018-09-11T16:39:36.050Z,30.10
2018-09-11T16:42:10.389Z,30.00
2018-09-11T16:44:44.809Z,29.90
2018-09-11T16:47:19.490Z,29.80
2018-09-11T16:49:53.813Z,29.80
2018-09-11T16:52:28.106Z,29.60
2018-09-11T16:55:02.425Z,29.60
2018-09-11T16:57:36.756Z,29.50
2018-09-11T17:00:11.122Z,29.40
2018-09-11T17:02:45.486Z,29.30
2018-09-11T17:05:19.850Z,29.30
2018-09-11T17:07:54.153Z,29.10
2018-09-11T17:10:28.571Z,29.10
2018-09-11T17:13:08.003Z,29.00
2018-09-11T17:15:42.381Z,28.90
2018-09-11T17:18:16.742Z,28.80
2018-09-11T17:20:51.057Z,28.70
2018-09-11T17:23:25.399Z,28.70
2018-09-11T17:25:59.769Z,28.50
2018-09-11T17:28:34.137Z,28.40
2018-09-11T17:31:08.733Z,28.30
2018-09-11T17:33:43.071Z,28.20
2018-09-11T17:36:17.960Z,28.00
2018-09-11T17:38:52.705Z,27.90
2018-09-11T17:41:27.050Z,27.80
2018-09-11T17:44:01.402Z,27.60
2018-09-11T17:46:35.870Z,27.50
2018-09-11T17:49:10.321Z,27.40
2018-09-11T17:51:44.673Z,27.40
2018-09-11T17:54:19.067Z,27.20
2018-09-11T17:56:53.641Z,27.10
2018-09-11T17:59:28.473Z,27.00
2018-09-11T18:02:02.777Z,26.90
2018-09-11T18:04:37.162Z,26.80
2018-09-11T18:07:11.531Z,26.70
2018-09-11T18:09:45.922Z,26.60
2018-09-11T18:12:20.382Z,26.60
2018-09-11T18:15:11.027Z,26.40
2018-09-11T18:17:45.603Z,26.30
2018-09-11T18:20:21.018Z,26.30
2018-09-11T18:22:55.618Z,26.10
2018-09-11T18:25:30.399Z,26.10
2018-09-11T18:28:10.288Z,26.00
2018-09-11T18:30:44.900Z,25.90
2018-09-11T18:33:19.283Z,25.80
2018-09-11T18:35:53.891Z,25.70
2018-09-11T18:38:38.131Z,25.60
2018-09-11T18:41:16.255Z,25.50
2018-09-11T18:44:05.229Z,25.40
2018-09-11T18:50:41.316Z,25.20
2018-09-11T18:53:17.771Z,25.10
2018-09-11T18:55:52.378Z,25.00
2018-09-11T18:58:26.799Z,24.90
2018-09-11T19:01:01.214Z,24.90
2018-09-11T19:03:35.590Z,24.80
2018-09-11T19:06:14.403Z,24.70
2018-09-11T19:08:48.796Z,24.60
2018-09-11T19:11:23.158Z,24.50
2018-09-11T19:13:57.527Z,24.50
2018-09-11T19:16:31.933Z,24.40
2018-09-11T19:19:06.550Z,24.30
2018-09-11T19:21:40.921Z,24.30
2018-09-11T19:24:15.300Z,24.20
2018-09-11T19:26:49.730Z,24.10
2018-09-11T19:29:24.152Z,24.10
2018-09-11T19:31:58.517Z,24.00
2018-09-11T19:34:32.864Z,23.90
2018-09-11T19:37:07.255Z,23.80
2018-09-11T19:39:41.637Z,23.70
2018-09-11T19:42:16.052Z,23.70
2018-09-11T19:44:50.387Z,23.60
2018-09-11T19:47:24.742Z,23.50
2018-09-11T19:49:59.077Z,23.40
2018-09-11T19:52:33.987Z,23.40
2018-09-11T19:55:08.480Z,23.30
2018-09-11T19:57:42.883Z,23.30
2018-09-11T20:00:17.215Z,23.20
2018-09-11T20:02:51.636Z,23.10
2018-09-11T20:05:26.027Z,23.10
2018-09-11T20:08:00.387Z,23.00
2018-09-11T20:10:34.751Z,23.00
2018-09-11T20:13:09.112Z,22.90
2018-09-11T20:15:43.462Z,22.80
2018-09-11T20:18:17.787Z,22.70
2018-09-11T20:20:52.206Z,22.70
2018-09-11T20:23:26.632Z,22.60
2018-09-11T20:26:00.961Z,22.60
2018-09-11T20:28:35.334Z,22.60
2018-09-11T20:31:09.682Z,22.50
2018-09-11T20:33:44.055Z,22.50
2018-09-11T20:36:18.418Z,22.50
2018-09-11T20:38:52.771Z,22.40
2018-09-11T20:41:27.172Z,22.40
2018-09-11T20:44:01.566Z,22.30
2018-09-11T20:46:35.937Z,22.30
2018-09-11T20:49:10.300Z,22.20
2018-09-11T20:51:44.701Z,22.10
2018-09-11T20:54:19.036Z,22.10
2018-09-11T20:56:53.377Z,22.00
2018-09-11T20:59:27.715Z,22.00
2018-09-11T21:02:02.065Z,21.90
2018-09-11T21:04:36.507Z,21.90
2018-09-11T21:07:10.879Z,21.80
2018-09-11T21:09:45.230Z,21.80
2018-09-11T21:12:19.590Z,21.80
2018-09-11T21:14:54.002Z,21.70
2018-09-11T21:17:28.422Z,21.70
2018-09-11T21:20:02.794Z,21.60
2018-09-11T21:22:37.159Z,21.50
2018-09-11T21:25:11.607Z,21.50
2018-09-11T21:27:45.998Z,21.40
2018-09-11T21:30:20.415Z,21.40
2018-09-11T21:32:54.752Z,21.30
2018-09-11T21:35:29.101Z,21.30
2018-09-11T21:38:03.511Z,21.30
2018-09-11T21:40:37.890Z,21.30
2018-09-11T21:43:12.261Z,21.20
2018-09-11T21:45:46.611Z,21.20
2018-09-11T21:48:21.022Z,21.20
2018-09-11T21:50:55.462Z,21.10
2018-09-11T21:53:29.855Z,21.10
2018-09-11T21:56:04.235Z,21.10
2018-09-11T21:58:38.630Z,21.10
2018-09-11T22:01:18.059Z,21.00
2018-09-11T22:03:52.375Z,21.00
2018-09-11T22:06:26.745Z,21.00
2018-09-11T22:09:01.082Z,21.00
2018-09-11T22:11:35.436Z,21.00
2018-09-11T22:14:10.340Z,21.00
2018-09-11T22:16:44.830Z,21.00
2018-09-11T22:19:19.183Z,20.90
2018-09-11T22:21:53.546Z,20.90
2018-09-11T22:24:27.936Z,20.90
2018-09-11T22:27:02.323Z,20.90
2018-09-11T22:29:36.667Z,20.90
2018-09-11T22:32:11.033Z,20.80
2018-09-11T22:34:45.400Z,20.80
2018-09-11T22:37:19.900Z,20.80
2018-09-11T22:39:54.273Z,20.80
2018-09-11T22:42:28.631Z,20.80
2018-09-11T22:45:03.022Z,20.70
2018-09-11T22:47:37.386Z,20.70
2018-09-11T22:50:11.865Z,20.70
2018-09-11T22:52:46.181Z,20.70
2018-09-11T22:55:20.521Z,20.70
2018-09-11T22:57:54.886Z,20.70
2018-09-11T23:00:29.279Z,20.60
2018-09-11T23:03:03.739Z,20.60
2018-09-11T23:05:38.082Z,20.60
2018-09-11T23:08:12.500Z,20.60
2018-09-11T23:10:46.980Z,20.50
2018-09-11T23:13:21.491Z,20.50
2018-09-11T23:15:55.897Z,20.50
2018-09-11T23:18:30.285Z,20.50
2018-09-11T23:21:04.612Z,20.40
2018-09-11T23:23:38.989Z,20.40
2018-09-11T23:26:13.357Z,20.40
2018-09-11T23:28:47.736Z,20.40
2018-09-11T23:31:22.208Z,20.40
2018-09-11T23:33:56.610Z,20.40
2018-09-11T23:36:30.949Z,20.30
2018-09-11T23:39:07.134Z,20.30
2018-09-11T23:41:41.550Z,20.30
2018-09-11T23:44:15.963Z,20.20
2018-09-11T23:46:50.414Z,20.20
2018-09-11T23:49:24.787Z,20.20
2018-09-11T23:51:59.114Z,20.20
2018-09-11T23:54:33.469Z,20.10
2018-09-11T23:57:07.802Z,20.10
2018-09-11T23:59:42.587Z,20.00
